Time;durP1;ratioP1;P1;durP2;ratioP2;P2;SDS_P1;SDS_P2;PMS_P1;PMS_P2;Temp;Humidity;BMP_temperature;BMP_pressure;BME280_temperature;BME280_humidity;BME280_pressure;Samples;Min_cycle;Max_cycle;Signal;HPM_P1;HPM_P2
2022/09/21 00:02:14;;;;;;;5.15;2.08;;;9.70;99.90;;;;;;5092764;28;20082;-67
2022/09/21 00:04:39;;;;;;;3.55;1.65;;;9.70;99.90;;;;;;5092626;28;20118;-67
2022/09/21 00:07:05;;;;;;;4.22;2.15;;;9.70;99.90;;;;;;5092704;28;20507;-67
2022/09/21 00:09:30;;;;;;;3.72;1.83;;;9.60;99.90;;;;;;5092624;28;20055;-67
2022/09/21 00:11:56;;;;;;;3.63;1.90;;;9.60;99.90;;;;;;5092431;28;20113;-66
2022/09/21 00:14:21;;;;;;;2.38;1.83;;;9.60;99.90;;;;;;5092219;28;20036;-66
2022/09/21 00:16:47;;;;;;;5.68;1.98;;;9.70;99.90;;;;;;5092766;28;20143;-66
2022/09/21 00:19:13;;;;;;;5.07;2.28;;;9.60;99.90;;;;;;5092574;28;20037;-66
2022/09/21 00:21:39;;;;;;;2.67;1.70;;;9.60;99.90;;;;;;5091067;28;20051;-66
2022/09/21 00:24:06;;;;;;;3.95;2.00;;;9.60;99.90;;;;;;5092214;28;20058;-66
2022/09/21 00:26:31;;;;;;;4.82;2.17;;;9.50;99.90;;;;;;5091319;28;20048;-66
2022/09/21 00:29:00;;;;;;;2.90;2.00;;;9.50;99.90;;;;;;5092209;28;20047;-66
2022/09/21 00:31:27;;;;;;;4.55;2.25;;;9.50;99.90;;;;;;5092543;28;20063;-67
2022/09/21 00:33:53;;;;;;;4.75;1.77;;;9.50;99.90;;;;;;5091892;28;20072;-66
2022/09/21 00:36:22;;;;;;;4.90;2.22;;;9.40;99.90;;;;;;5092339;28;20144;-66
2022/09/21 00:38:51;;;;;;;4.28;2.13;;;9.40;99.90;;;;;;5092108;28;20526;-67
2022/09/21 00:41:17;;;;;;;4.10;2.38;;;9.40;99.90;;;;;;5092150;28;20071;-67
2022/09/21 00:43:47;;;;;;;5.85;2.25;;;9.40;99.90;;;;;;5092019;28;20067;-67
2022/09/21 00:46:36;;;;;;;2.67;1.92;;;9.40;99.90;;;;;;5092154;28;20637;-67
2022/09/21 00:49:02;;;;;;;3.80;1.85;;;9.40;99.90;;;;;;5091635;28;20058;-66
2022/09/21 00:51:28;;;;;;;3.33;2.03;;;9.30;99.90;;;;;;5091929;28;20040;-67
2022/09/21 00:54:01;;;;;;;2.83;2.10;;;9.20;99.90;;;;;;5091537;28;20036;-66
2022/09/21 00:56:26;;;;;;;;;;;9.20;99.90;;;;;;5092653;28;20059;-67
2022/09/21 00:58:53;;;;;;;3.30;2.10;;;9.30;99.90;;;;;;5092211;28;20389;-66
2022/09/21 01:01:19;;;;;;;6.82;2.35;;;9.20;99.90;;;;;;5091998;28;20086;-67
2022/09/21 01:03:46;;;;;;;5.25;2.00;;;9.20;99.90;;;;;;5090537;28;20086;-66
2022/09/21 01:06:12;;;;;;;8.88;2.25;;;9.20;99.90;;;;;;5091905;28;20040;-66
2022/09/21 01:08:40;;;;;;;4.32;2.47;;;9.20;99.90;;;;;;5092525;28;20500;-66
2022/09/21 01:11:50;;;;;;;3.33;2.08;;;9.10;99.90;;;;;;5094868;28;20484;-66
2022/09/21 01:14:39;;;;;;;3.63;2.20;;;9.10;99.90;;;;;;5095759;28;20047;-67
2022/09/21 01:17:31;;;;;;;4.80;2.25;;;9.10;99.90;;;;;;5096010;28;20048;-66
2022/09/21 01:20:28;;;;;;;3.33;2.00;;;9.10;99.90;;;;;;5096111;28;20119;-66
2022/09/21 01:23:15;;;;;;;4.15;1.83;;;9.00;99.90;;;;;;5095861;28;20044;-66
2022/09/21 01:25:56;;;;;;;2.80;2.08;;;9.00;99.90;;;;;;5095624;28;20040;-67
2022/09/21 01:28:29;;;;;;;5.18;2.17;;;9.00;99.90;;;;;;5095896;28;20044;-67
2022/09/21 01:30:59;;;;;;;3.95;2.35;;;9.00;99.90;;;;;;5094461;28;20125;-66
2022/09/21 01:33:30;;;;;;;4.15;2.42;;;9.00;99.90;;;;;;5095566;28;20115;-67
2022/09/21 01:36:00;;;;;;;3.88;2.35;;;9.00;99.90;;;;;;5095560;28;20043;-67
2022/09/21 01:38:30;;;;;;;3.65;2.30;;;9.00;99.90;;;;;;5095879;28;20404;-67
2022/09/21 01:41:01;;;;;;;3.33;2.08;;;9.00;99.90;;;;;;5095712;28;20036;-66
2022/09/21 01:43:35;;;;;;;4.68;2.10;;;9.00;99.90;;;;;;5095503;28;20071;-67
2022/09/21 01:46:03;;;;;;;3.25;2.22;;;8.90;99.90;;;;;;5095406;28;20066;-66
2022/09/21 01:48:37;;;;;;;5.03;2.40;;;8.90;99.90;;;;;;5095635;28;20076;-66
2022/09/21 01:51:06;;;;;;;2.92;2.13;;;8.90;99.90;;;;;;5095521;28;20036;-66
2022/09/21 01:53:51;;;;;;;4.47;2.70;;;8.90;99.90;;;;;;5095360;28;20119;-67
2022/09/21 01:56:29;;;;;;;3.97;2.55;;;8.80;99.90;;;;;;5095243;28;20036;-66
2022/09/21 01:59:08;;;;;;;5.07;2.70;;;8.80;99.90;;;;;;5095528;28;20039;-66
2022/09/21 02:01:43;;;;;;;6.18;2.50;;;8.80;99.90;;;;;;5095353;28;20076;-66
2022/09/21 02:04:11;;;;;;;2.63;2.35;;;8.70;99.90;;;;;;5094762;28;20040;-66
2022/09/21 02:06:42;;;;;;;3.38;2.40;;;8.70;99.90;;;;;;5095098;28;20036;-67
2022/09/21 02:09:09;;;;;;;4.22;2.30;;;8.70;99.90;;;;;;5095158;28;20048;-66
2022/09/21 02:11:41;;;;;;;5.03;2.35;;;8.70;99.90;;;;;;5094813;28;20085;-67
2022/09/21 02:14:10;;;;;;;3.38;2.53;;;8.60;99.90;;;;;;5094653;28;20036;-67
2022/09/21 02:16:39;;;;;;;7.38;2.65;;;8.60;99.90;;;;;;5094786;28;20043;-66
2022/09/21 02:19:20;;;;;;;3.83;2.33;;;8.60;99.90;;;;;;5094918;28;20032;-67
2022/09/21 02:22:08;;;;;;;4.63;2.40;;;8.60;99.90;;;;;;5094900;28;20122;-67
2022/09/21 02:24:48;;;;;;;2.35;2.15;;;8.50;99.90;;;;;;5094369;28;20044;-67
2022/09/21 02:27:32;;;;;;;6.85;2.10;;;8.40;99.90;;;;;;5094655;28;20032;-66
2022/09/21 02:30:14;;;;;;;4.45;2.45;;;8.50;99.90;;;;;;5094558;28;20500;-66
2022/09/21 02:32:59;;;;;;;2.42;2.22;;;8.50;99.90;;;;;;5094684;28;20115;-67
2022/09/21 02:35:54;;;;;;;4.65;2.03;;;8.50;99.90;;;;;;5094145;28;20691;-66
2022/09/21 02:38:37;;;;;;;3.95;2.13;;;8.50;99.90;;;;;;5094606;28;20090;-66
2022/09/21 02:41:22;;;;;;;7.32;2.05;;;8.50;99.90;;;;;;5094486;28;20046;-66
2022/09/21 02:43:56;;;;;;;7.38;2.70;;;8.40;99.90;;;;;;5094270;28;20032;-66
2022/09/21 02:46:25;;;;;;;3.83;2.45;;;8.30;99.90;;;;;;5094460;28;20040;-66
2022/09/21 02:49:01;;;;;;;2.47;2.28;;;8.40;99.90;;;;;;5094220;28;20116;-66
2022/09/21 02:51:34;;;;;;;5.47;2.90;;;8.40;99.90;;;;;;5094314;28;20124;-66
2022/09/21 02:54:03;;;;;;;3.78;2.55;;;8.40;99.90;;;;;;5093756;28;20040;-67
2022/09/21 02:56:30;;;;;;;4.45;2.67;;;8.40;99.90;;;;;;5094298;28;20039;-67
2022/09/21 02:59:00;;;;;;;3.90;2.78;;;8.40;99.90;;;;;;5092769;28;20036;-66
2022/09/21 03:01:27;;;;;;;3.72;2.60;;;8.40;99.90;;;;;;5094082;28;20044;-66
2022/09/21 03:03:53;;;;;;;5.88;2.88;;;8.30;99.90;;;;;;5093594;28;20160;-66
2022/09/21 03:06:18;;;;;;;4.63;2.40;;;8.30;99.90;;;;;;5093835;28;20049;-66
2022/09/21 03:08:45;;;;;;;6.63;2.83;;;8.30;99.90;;;;;;5093768;28;20024;-66
2022/09/21 03:11:14;;;;;;;3.03;2.50;;;8.30;99.90;;;;;;5092309;28;20550;-66
2022/09/21 03:13:40;;;;;;;3.65;2.40;;;8.30;99.90;;;;;;5093835;28;20044;-66
2022/09/21 03:16:06;;;;;;;4.38;2.33;;;8.20;99.90;;;;;;5093635;28;20484;-67
2022/09/21 03:18:33;;;;;;;3.88;2.55;;;8.20;99.90;;;;;;5093560;28;20066;-66
2022/09/21 03:21:01;;;;;;;5.20;2.92;;;8.20;99.90;;;;;;5093898;28;20046;-66
2022/09/21 03:23:26;;;;;;;3.88;2.65;;;8.10;99.90;;;;;;5093650;28;20047;-67
2022/09/21 03:25:53;;;;;;;6.10;2.65;;;8.20;99.90;;;;;;5093291;28;20035;-67
2022/09/21 03:28:20;;;;;;;4.80;2.10;;;8.10;99.90;;;;;;5093642;28;20079;-66
2022/09/21 03:30:48;;;;;;;4.95;2.83;;;8.10;99.90;;;;;;5093311;28;20047;-66
2022/09/21 03:33:13;;;;;;;4.13;2.85;;;8.10;99.90;;;;;;5091586;28;20052;-67
2022/09/21 03:35:39;;;;;;;5.15;2.50;;;8.00;99.90;;;;;;5093242;28;20067;-66
2022/09/21 03:38:05;;;;;;;4.82;2.95;;;8.00;99.90;;;;;;5093472;28;20036;-66
2022/09/21 03:40:31;;;;;;;6.97;2.83;;;8.00;99.90;;;;;;5093351;28;20115;-66
2022/09/21 03:42:57;;;;;;;5.50;2.65;;;8.00;99.90;;;;;;5093169;28;20044;-66
2022/09/21 03:45:23;;;;;;;5.65;2.30;;;8.00;99.90;;;;;;5092851;28;20046;-66
2022/09/21 03:47:49;;;;;;;7.05;2.22;;;7.90;99.90;;;;;;5092964;28;20389;-66
2022/09/21 03:50:15;;;;;;;4.40;2.00;;;7.80;99.90;;;;;;5093149;28;20040;-66
2022/09/21 03:52:41;;;;;;;3.40;2.20;;;7.80;99.90;;;;;;5093193;28;20032;-66
2022/09/21 03:55:08;;;;;;;3.95;3.10;;;7.90;99.90;;;;;;5092565;28;20040;-67
2022/09/21 03:57:34;;;;;;;4.15;2.47;;;8.00;99.90;;;;;;5093060;28;20408;-66
2022/09/21 04:00:02;;;;;;;5.30;1.95;;;7.80;99.90;;;;;;5092913;28;20040;-66
2022/09/21 04:02:29;;;;;;;4.25;2.20;;;7.80;99.90;;;;;;5091487;28;20036;-67
2022/09/21 04:04:54;;;;;;;5.65;2.10;;;7.80;99.90;;;;;;5092621;28;20111;-67
2022/09/21 04:07:20;;;;;;;3.45;1.90;;;7.70;99.90;;;;;;5092903;28;20119;-67
2022/09/21 04:09:46;;;;;;;5.35;2.53;;;7.70;99.90;;;;;;5092673;28;20040;-66
2022/09/21 04:12:11;;;;;;;1.92;1.77;;;7.70;99.90;;;;;;5092351;28;20074;-66
2022/09/21 04:14:37;;;;;;;1.77;1.65;;;7.70;99.90;;;;;;5091289;28;20073;-67
2022/09/21 04:17:03;;;;;;;4.18;1.85;;;7.70;99.90;;;;;;5092717;28;20428;-67
2022/09/21 04:19:28;;;;;;;2.28;2.08;;;7.70;99.90;;;;;;5092688;28;20500;-67
2022/09/21 04:21:55;;;;;;;4.90;2.00;;;7.70;99.90;;;;;;5092648;28;20044;-66
2022/09/21 04:24:21;;;;;;;3.03;2.00;;;7.70;99.90;;;;;;5090845;28;20059;-66
2022/09/21 04:26:47;;;;;;;4.25;1.85;;;7.70;99.90;;;;;;5092255;28;20602;-66
2022/09/21 04:29:13;;;;;;;2.38;2.00;;;7.70;99.90;;;;;;5092542;28;20196;-67
2022/09/21 04:31:39;;;;;;;3.83;1.90;;;7.70;99.90;;;;;;5091041;28;20048;-67
2022/09/21 04:34:05;;;;;;;2.80;2.10;;;7.70;99.90;;;;;;5092036;28;20039;-66
2022/09/21 04:36:31;;;;;;;12.30;2.63;;;7.70;99.90;;;;;;5092412;28;20118;-66
2022/09/21 04:38:59;;;;;;;2.78;2.17;;;7.70;99.90;;;;;;5092245;28;20032;-66
2022/09/21 04:41:25;;;;;;;2.70;2.35;;;7.70;99.90;;;;;;5092201;28;20071;-66
2022/09/21 04:43:51;;;;;;;4.53;2.05;;;7.60;99.90;;;;;;5091326;28;20111;-67
2022/09/21 04:46:18;;;;;;;3.25;1.83;;;7.60;99.90;;;;;;5092297;28;20075;-66
2022/09/21 04:48:44;;;;;;;2.45;2.25;;;7.50;99.90;;;;;;5090795;28;20051;-66
2022/09/21 04:51:10;;;;;;;4.38;2.50;;;7.60;99.90;;;;;;5092167;28;20032;-66
2022/09/21 04:53:37;;;;;;;6.18;2.10;;;7.70;99.90;;;;;;5092049;28;20481;-67
2022/09/21 04:56:04;;;;;;;2.30;2.10;;;7.60;99.90;;;;;;5090524;28;20043;-66
2022/09/21 04:58:31;;;;;;;2.25;1.90;;;7.60;99.90;;;;;;5092184;28;20454;-67
2022/09/21 05:00:57;;;;;;;2.90;1.98;;;7.40;99.90;;;;;;5092084;28;20377;-67
2022/09/21 05:03:24;;;;;;;4.25;2.40;;;7.40;99.90;;;;;;5091925;28;20123;-66
2022/09/21 05:05:52;;;;;;;2.53;2.30;;;7.40;99.90;;;;;;5091767;28;20404;-67
2022/09/21 05:11:02;;;;;;;5.53;3.38;;;7.50;99.90;;;;;;5089272;28;20056;-66
2022/09/21 05:13:28;;;;;;;4.28;3.88;;;7.50;99.90;;;;;;5088600;28;20032;-67
2022/09/21 05:15:53;;;;;;;3.33;3.03;;;7.40;99.90;;;;;;5088887;28;20040;-67
2022/09/21 05:18:19;;;;;;;6.70;2.90;;;7.40;99.90;;;;;;5091411;28;20493;-66
2022/09/21 05:20:44;;;;;;;2.00;1.77;;;7.40;99.90;;;;;;5091231;28;20044;-67
2022/09/21 05:23:10;;;;;;;9.68;2.85;;;7.30;99.90;;;;;;5090781;28;20051;-66
2022/09/21 05:25:35;;;;;;;2.47;1.77;;;7.20;99.90;;;;;;5091502;28;20040;-66
2022/09/21 05:28:01;;;;;;;2.08;1.50;;;7.20;99.90;;;;;;5091742;28;20043;-66
2022/09/21 05:30:27;;;;;;;2.00;1.90;;;7.20;99.90;;;;;;5091660;28;20032;-67
2022/09/21 05:33:02;;;;;;;4.35;1.73;;;7.20;99.90;;;;;;5091685;28;20085;-67
2022/09/21 05:35:30;;;;;;;1.45;1.35;;;7.30;99.90;;;;;;5091654;28;20036;-66
2022/09/21 05:38:11;;;;;;;2.25;1.73;;;7.30;99.90;;;;;;5091809;28;20043;-67
2022/09/21 05:40:37;;;;;;;2.28;1.33;;;7.30;99.90;;;;;;5091695;28;20075;-66
2022/09/21 05:43:03;;;;;;;2.13;1.70;;;7.30;99.90;;;;;;5091518;28;20057;-67
2022/09/21 05:45:29;;;;;;;2.55;1.83;;;7.30;99.90;;;;;;5091249;28;20039;-67
2022/09/21 05:48:10;;;;;;;1.73;1.63;;;7.20;99.90;;;;;;5091713;28;20032;-67
2022/09/21 05:50:48;;;;;;;3.00;2.00;;;7.20;99.90;;;;;;5091717;28;20048;-66
2022/09/21 05:53:35;;;;;;;2.67;1.70;;;7.20;99.90;;;;;;5091577;28;20051;-66
2022/09/21 05:56:27;;;;;;;2.22;1.88;;;7.30;99.90;;;;;;5094108;28;20086;-66
2022/09/21 05:59:10;;;;;;;2.03;1.83;;;7.30;99.90;;;;;;5095241;28;20176;-66
2022/09/21 06:02:05;;;;;;;2.63;2.00;;;7.30;99.90;;;;;;5095224;28;20043;-67
2022/09/21 06:04:31;;;;;;;1.80;1.70;;;7.40;99.90;;;;;;5094715;28;20064;-66
2022/09/21 06:06:57;;;;;;;6.90;2.53;;;7.40;99.90;;;;;;5093825;28;20062;-67
2022/09/21 06:09:24;;;;;;;4.82;2.05;;;7.50;99.90;;;;;;5093667;28;20051;-69
2022/09/21 06:11:50;;;;;;;2.88;2.40;;;7.60;99.90;;;;;;5095110;28;20110;-67
2022/09/21 06:14:16;;;;;;;3.03;2.72;;;7.60;99.90;;;;;;5094606;28;20162;-67
2022/09/21 06:16:42;;;;;;;3.10;2.55;;;7.70;99.90;;;;;;5093907;28;20043;-67
2022/09/21 06:19:13;;;;;;;6.35;2.58;;;7.80;99.90;;;;;;5095033;28;20474;-67
2022/09/21 06:21:39;;;;;;;5.23;3.03;;;7.60;99.90;;;;;;5095054;28;20427;-67
2022/09/21 06:24:05;;;;;;;2.25;1.98;;;7.70;99.90;;;;;;5094525;28;20039;-67
2022/09/21 06:26:30;;;;;;;4.43;1.90;;;7.80;99.90;;;;;;5093386;28;20047;-67
2022/09/21 06:28:56;;;;;;;4.90;1.92;;;7.80;99.90;;;;;;5094628;28;20042;-67
2022/09/21 06:31:21;;;;;;;3.03;1.90;;;7.70;99.90;;;;;;5094582;28;20038;-67
2022/09/21 06:33:47;;;;;;;2.30;1.63;;;7.80;99.90;;;;;;5094407;28;20184;-67
2022/09/21 06:36:13;;;;;;;2.00;1.80;;;7.80;99.90;;;;;;5094593;28;20036;-67
2022/09/21 06:38:39;;;;;;;3.95;1.90;;;7.80;99.90;;;;;;5094594;28;20044;-67
2022/09/21 06:41:04;;;;;;;2.00;1.90;;;7.80;99.90;;;;;;5094497;28;20044;-67
2022/09/21 06:43:31;;;;;;;2.13;1.95;;;8.00;99.90;;;;;;5094261;28;20047;-67
2022/09/21 06:45:58;;;;;;;4.05;1.90;;;8.10;99.90;;;;;;5092725;28;20039;-67
2022/09/21 06:48:25;;;;;;;2.47;2.00;;;8.10;99.90;;;;;;5094497;28;20039;-67
2022/09/21 06:50:56;;;;;;;1.90;1.80;;;8.20;99.90;;;;;;5094341;28;20064;-67
2022/09/21 06:53:22;;;;;;;1.70;1.60;;;8.20;99.90;;;;;;5094264;28;20055;-68
2022/09/21 06:55:47;;;;;;;1.98;1.73;;;8.30;99.90;;;;;;5093956;28;20393;-67
2022/09/21 06:58:13;;;;;;;3.28;1.60;;;8.40;99.90;;;;;;5094040;28;20506;-67
2022/09/21 07:00:38;;;;;;;2.33;1.73;;;8.40;99.90;;;;;;5093975;28;20043;-67
2022/09/21 07:03:04;;;;;;;5.70;1.88;;;8.40;99.90;;;;;;5094172;28;20051;-67
2022/09/21 07:05:32;;;;;;;1.92;1.83;;;8.50;99.90;;;;;;5093754;28;20101;-67
2022/09/21 07:07:58;;;;;;;3.60;1.80;;;8.60;99.90;;;;;;5093306;28;20051;-67
2022/09/21 07:10:24;;;;;;;3.20;2.00;;;8.70;99.90;;;;;;5093517;28;20483;-67
2022/09/21 07:12:51;;;;;;;2.83;2.03;;;8.80;99.90;;;;;;5094267;28;20041;-67
2022/09/21 07:15:18;;;;;;;2.50;2.10;;;8.80;99.90;;;;;;5093561;28;20047;-67
2022/09/21 07:17:43;;;;;;;3.17;2.20;;;8.90;99.90;;;;;;5092450;28;20040;-67
2022/09/21 07:20:09;;;;;;;6.63;2.78;;;9.00;99.90;;;;;;5092442;28;20097;-68
2022/09/21 07:22:35;;;;;;;5.32;2.47;;;9.00;99.90;;;;;;5092261;28;20043;-67
2022/09/21 07:25:02;;;;;;;4.07;2.83;;;9.10;99.90;;;;;;5092663;28;20044;-67
2022/09/21 07:27:30;;;;;;;5.78;3.15;;;9.20;99.90;;;;;;5092630;28;20097;-67
2022/09/21 07:29:55;;;;;;;5.47;2.70;;;9.30;99.90;;;;;;5092823;28;20047;-67
2022/09/21 07:32:21;;;;;;;5.47;3.00;;;9.30;99.90;;;;;;5092786;28;20428;-67
2022/09/21 07:34:47;;;;;;;5.28;2.88;;;9.40;99.90;;;;;;5092347;28;20580;-67
2022/09/21 07:37:13;;;;;;;4.88;2.85;;;9.50;99.90;;;;;;5092198;28;20476;-68
2022/09/21 07:39:38;;;;;;;5.82;2.90;;;9.50;99.90;;;;;;5093204;28;20053;-67
2022/09/21 07:42:05;;;;;;;7.30;2.95;;;9.60;99.90;;;;;;5093216;28;20040;-67
2022/09/21 07:44:31;;;;;;;3.40;2.97;;;9.70;99.90;;;;;;5092852;28;20542;-67
2022/09/21 07:46:56;;;;;;;4.88;3.13;;;9.80;99.90;;;;;;5093245;28;20044;-67
2022/09/21 07:49:22;;;;;;;6.20;3.00;;;9.90;99.90;;;;;;5093054;28;20048;-67
2022/09/21 07:51:47;;;;;;;7.68;3.97;;;9.90;99.90;;;;;;5093045;28;20410;-67
2022/09/21 07:54:14;;;;;;;5.70;3.63;;;10.00;99.90;;;;;;5093103;28;20071;-67
2022/09/21 07:56:41;;;;;;;7.82;3.50;;;10.00;99.90;;;;;;5092951;28;20035;-67
2022/09/21 07:59:07;;;;;;;7.32;3.97;;;10.10;99.90;;;;;;5093020;28;20047;-67
2022/09/21 08:01:38;;;;;;;9.18;4.00;;;10.20;99.90;;;;;;5093161;28;20396;-67
2022/09/21 08:04:06;;;;;;;7.22;4.53;;;10.30;99.90;;;;;;5092415;28;20032;-67
2022/09/21 08:06:32;;;;;;;10.65;4.47;;;10.40;99.90;;;;;;5093041;28;20038;-67
2022/09/21 08:09:02;;;;;;;10.63;4.70;;;10.50;99.90;;;;;;5092791;28;20040;-67
2022/09/21 08:11:29;;;;;;;9.20;4.65;;;10.50;99.90;;;;;;5092799;28;20035;-67
2022/09/21 08:13:58;;;;;;;12.15;4.75;;;10.60;99.90;;;;;;5092373;28;20040;-67
2022/09/21 08:16:24;;;;;;;5.65;4.28;;;10.70;99.90;;;;;;5092717;28;20109;-67
2022/09/21 08:18:50;;;;;;;6.60;4.38;;;10.70;99.90;;;;;;5092366;28;20043;-67
2022/09/21 08:21:16;;;;;;;8.75;4.07;;;10.80;99.90;;;;;;5092693;28;20059;-67
2022/09/21 08:23:42;;;;;;;6.35;3.67;;;10.90;99.90;;;;;;5092413;28;20400;-67
2022/09/21 08:26:11;;;;;;;7.13;4.53;;;10.90;99.90;;;;;;5092363;28;20040;-67
2022/09/21 08:28:37;;;;;;;8.60;4.07;;;10.90;99.90;;;;;;5091185;28;20040;-67
2022/09/21 08:31:07;;;;;;;8.50;3.63;;;11.00;99.90;;;;;;5092268;28;20500;-67
2022/09/21 08:33:33;;;;;;;9.35;4.05;;;10.90;99.90;;;;;;5092171;28;20064;-67
2022/09/21 08:35:59;;;;;;;16.08;4.57;;;11.00;99.90;;;;;;5092302;28;20036;-67
2022/09/21 08:38:26;;;;;;;8.35;3.47;;;11.00;99.90;;;;;;5092428;28;20040;-67
2022/09/21 08:40:52;;;;;;;9.30;3.97;;;11.00;99.90;;;;;;5090884;28;20040;-67
2022/09/21 08:43:41;;;;;;;9.52;3.85;;;11.10;99.90;;;;;;5092146;28;20050;-67
2022/09/21 08:46:11;;;;;;;11.15;3.85;;;11.10;99.90;;;;;;5091146;28;20036;-67
2022/09/21 08:48:54;;;;;;;5.68;3.40;;;11.10;99.90;;;;;;5092362;28;20109;-67
2022/09/21 08:51:24;;;;;;;10.75;4.30;;;11.30;99.90;;;;;;5092105;28;20484;-67
2022/09/21 08:53:55;;;;;;;10.43;3.72;;;11.40;99.90;;;;;;5091784;28;20086;-67
2022/09/21 08:56:23;;;;;;;8.52;3.47;;;11.40;99.90;;;;;;5091916;28;20039;-67
2022/09/21 08:58:48;;;;;;;15.70;3.38;;;11.50;99.90;;;;;;5092241;28;20040;-67
2022/09/21 09:01:38;;;;;;;9.10;3.75;;;11.50;99.90;;;;;;5092154;28;20036;-67
2022/09/21 09:04:23;;;;;;;7.93;3.50;;;11.60;99.90;;;;;;5091765;28;20176;-68
2022/09/21 09:06:49;;;;;;;9.57;3.03;;;11.60;99.90;;;;;;5091930;28;20040;-68
2022/09/21 09:09:36;;;;;;;11.88;2.95;;;11.60;99.90;;;;;;5092011;28;20542;-68
2022/09/21 09:12:19;;;;;;;16.38;3.88;;;11.80;99.90;;;;;;5091991;28;20395;-67
2022/09/21 09:15:04;;;;;;;13.13;3.60;;;11.90;99.90;;;;;;5090528;28;20044;-67
2022/09/21 09:17:47;;;;;;;5.82;2.88;;;12.00;99.90;;;;;;5092091;28;20040;-67
2022/09/21 09:20:19;;;;;;;8.02;2.83;;;11.90;99.90;;;;;;5111172;28;20158;-68
2022/09/21 09:23:01;;;;;;;8.52;2.95;;;12.00;99.90;;;;;;5112296;28;20427;-67
2022/09/21 09:25:41;;;;;;;9.43;2.88;;;12.30;99.90;;;;;;5111731;28;20687;-67
2022/09/21 09:28:20;;;;;;;7.32;2.42;;;12.30;99.90;;;;;;5112345;28;20043;-67
2022/09/21 09:30:51;;;;;;;9.27;3.00;;;12.30;99.90;;;;;;5114955;28;20411;-67
2022/09/21 09:33:25;;;;;;;12.63;3.03;;;12.30;99.90;;;;;;5116193;28;20043;-67
2022/09/21 09:36:00;;;;;;;10.57;3.00;;;12.30;99.90;;;;;;5115865;28;20158;-67
2022/09/21 09:38:33;;;;;;;12.25;3.05;;;12.40;99.90;;;;;;5114796;28;20051;-67
2022/09/21 09:41:23;;;;;;;10.13;3.40;;;12.60;99.90;;;;;;5114795;28;20128;-67
2022/09/21 09:44:13;;;;;;;6.72;2.60;;;12.70;99.90;;;;;;5115605;28;20043;-67
2022/09/21 09:47:11;;;;;;;10.82;2.60;;;12.80;99.90;;;;;;5116142;28;20095;-67
2022/09/21 09:49:55;;;;;;;14.73;3.42;;;12.70;99.90;;;;;;5115910;27;20036;-67
2022/09/21 09:52:21;;;;;;;12.13;3.10;;;12.80;99.90;;;;;;5115785;28;20032;-67
2022/09/21 09:54:47;;;;;;;8.23;2.75;;;12.80;99.90;;;;;;5115308;28;20520;-67
2022/09/21 09:57:14;;;;;;;6.78;2.80;;;12.80;99.90;;;;;;5115883;28;20059;-67
2022/09/21 09:59:48;;;;;;;8.00;2.95;;;12.90;99.90;;;;;;5115694;28;20044;-67
2022/09/21 10:02:22;;;;;;;14.02;3.25;;;12.90;99.90;;;;;;5115760;28;20042;-67
2022/09/21 10:05:07;;;;;;;9.48;2.95;;;12.90;99.90;;;;;;5115231;28;20051;-67
2022/09/21 10:07:34;;;;;;;18.02;3.25;;;13.10;99.90;;;;;;5115519;28;20047;-67
2022/09/21 10:10:00;;;;;;;6.97;2.90;;;13.50;99.90;;;;;;5115497;28;20496;-67
2022/09/21 10:12:26;;;;;;;10.57;2.50;;;13.60;99.90;;;;;;5115557;28;20034;-68
2022/09/21 10:14:55;;;;;;;9.35;2.47;;;13.70;99.90;;;;;;5115100;28;20103;-67
2022/09/21 10:17:23;;;;;;;5.70;2.40;;;13.80;99.90;;;;;;5115240;28;20096;-68
2022/09/21 10:20:02;;;;;;;8.18;2.28;;;14.00;99.90;;;;;;5113965;28;20047;-67
2022/09/21 10:22:31;;;;;;;10.50;2.30;;;13.90;99.90;;;;;;5115431;28;20689;-67
2022/09/21 10:25:04;;;;;;;6.47;2.10;;;13.90;99.90;;;;;;5114861;28;20051;-67
2022/09/21 10:27:36;;;;;;;5.78;2.58;;;14.10;99.90;;;;;;5115089;28;20458;-67
2022/09/21 10:30:01;;;;;;;11.05;2.30;;;14.00;99.90;;;;;;5113602;28;20092;-68
2022/09/21 10:32:28;;;;;;;8.25;2.30;;;14.00;99.90;;;;;;5115221;28;20039;-68
2022/09/21 10:35:04;;;;;;;10.10;2.20;;;14.10;99.90;;;;;;5114644;28;20043;-67
2022/09/21 10:37:39;;;;;;;10.38;2.17;;;14.30;99.90;;;;;;5115093;28;20039;-67
2022/09/21 10:40:20;;;;;;;7.88;1.90;;;14.30;99.90;;;;;;5114887;28;20039;-67
2022/09/21 10:42:52;;;;;;;7.82;1.73;;;14.50;99.90;;;;;;5113955;28;20048;-67
2022/09/21 10:45:21;;;;;;;6.55;2.00;;;14.40;99.90;;;;;;5112858;28;20048;-67
2022/09/21 10:47:51;;;;;;;6.38;1.70;;;14.40;99.90;;;;;;5115080;28;20523;-67
2022/09/21 10:50:27;;;;;;;8.93;2.20;;;14.40;99.90;;;;;;5113376;28;20055;-67
2022/09/21 10:53:08;;;;;;;6.72;1.52;;;14.40;99.90;;;;;;5114572;28;20036;-68
2022/09/21 10:55:40;;;;;;;6.95;1.42;;;14.40;99.90;;;;;;5114294;28;20051;-68
2022/09/21 10:58:11;;;;;;;11.30;1.98;;;14.40;99.90;;;;;;5114615;28;20395;-69
2022/09/21 11:00:42;;;;;;;4.90;1.40;;;14.40;99.90;;;;;;5114511;28;20043;-69
2022/09/21 11:03:46;;;;;;;7.50;1.40;;;14.70;99.90;;;;;;5113347;28;20052;-69
2022/09/21 11:06:20;;;;;;;8.65;1.45;;;14.60;99.90;;;;;;5114637;28;20046;-68
2022/09/21 11:09:18;;;;;;;6.45;1.42;;;14.60;99.90;;;;;;5114431;28;20067;-68
2022/09/21 11:11:51;;;;;;;10.48;1.70;;;14.60;99.90;;;;;;5076342;28;20052;-69
2022/09/21 11:14:19;;;;;;;4.45;1.48;;;14.60;99.90;;;;;;5113855;28;20437;-68
2022/09/21 11:17:02;;;;;;;5.43;1.33;;;14.60;99.90;;;;;;5114385;28;20032;-68
2022/09/21 11:19:38;;;;;;;9.23;1.25;;;14.70;99.90;;;;;;5114221;28;20045;-68
2022/09/21 11:22:16;;;;;;;6.80;1.30;;;15.00;99.90;;;;;;5112774;28;20054;-68
2022/09/21 11:25:15;;;;;;;4.18;1.33;;;15.00;99.90;;;;;;5113596;28;20036;-68
2022/09/21 11:27:48;;;;;;;6.97;1.38;;;15.00;99.90;;;;;;5114121;28;20044;-68
2022/09/21 11:30:16;;;;;;;8.40;1.58;;;15.00;99.90;;;;;;5112500;28;20058;-67
2022/09/21 11:33:05;;;;;;;5.13;1.33;;;15.10;99.90;;;;;;5113923;28;20085;-67
2022/09/21 11:35:51;;;;;;;4.00;1.38;;;15.00;99.90;;;;;;5113500;28;20546;-66
2022/09/21 11:38:51;;;;;;;6.43;1.35;;;15.00;99.90;;;;;;5113733;28;20039;-67
2022/09/21 11:41:35;;;;;;;5.15;1.50;;;15.00;99.90;;;;;;5113629;28;20114;-66
2022/09/21 11:44:13;;;;;;;8.00;1.13;;;15.10;99.90;;;;;;5113506;27;20735;-67
2022/09/21 11:46:58;;;;;;;6.80;1.33;;;15.10;99.90;;;;;;5113717;28;20065;-67
2022/09/21 11:49:36;;;;;;;4.80;1.48;;;15.10;99.90;;;;;;5113540;28;20399;-67
2022/09/21 11:52:30;;;;;;;5.18;1.42;;;15.10;99.90;;;;;;5113355;28;20124;-67
2022/09/21 11:55:16;;;;;;;7.20;1.10;;;15.10;99.90;;;;;;5113205;28;20031;-67
2022/09/21 11:57:57;;;;;;;4.65;1.13;;;15.30;99.90;;;;;;5113398;28;20036;-66
2022/09/21 12:00:24;;;;;;;5.60;1.30;;;15.30;99.90;;;;;;5113582;28;20048;-67
2022/09/21 12:03:17;;;;;;;4.35;1.40;;;15.30;99.90;;;;;;5113220;28;20495;-67
2022/09/21 12:06:06;;;;;;;4.53;1.08;;;15.30;99.90;;;;;;5111914;28;20052;-67
2022/09/21 12:08:47;;;;;;;6.05;1.42;;;15.40;99.90;;;;;;5113130;28;20445;-67
2022/09/21 12:11:42;;;;;;;9.07;2.00;;;15.50;99.90;;;;;;5111807;28;20047;-66
2022/09/21 12:14:25;;;;;;;6.85;1.00;;;15.50;99.90;;;;;;5112787;28;20046;-67
2022/09/21 12:17:07;;;;;;;5.25;1.25;;;15.60;99.90;;;;;;5113039;28;20039;-67
2022/09/21 12:19:47;;;;;;;4.38;1.20;;;15.50;99.90;;;;;;5113339;27;20044;-67
2022/09/21 12:22:35;;;;;;;1.67;0.90;;;15.50;99.90;;;;;;5113012;28;20035;-67
2022/09/21 12:25:05;;;;;;;7.53;1.50;;;15.50;99.90;;;;;;5112502;28;20122;-66
2022/09/21 12:27:42;;;;;;;5.78;1.45;;;15.60;99.90;;;;;;5111489;28;20069;-67
2022/09/21 12:30:15;;;;;;;9.95;1.50;;;15.60;99.90;;;;;;5112835;28;20039;-67
2022/09/21 12:33:10;;;;;;;11.77;1.25;;;15.50;99.90;;;;;;5112850;28;20043;-65
2022/09/21 12:35:45;;;;;;;3.72;1.10;;;15.50;99.90;;;;;;5105392;28;20040;-68
2022/09/21 12:38:26;;;;;;;4.82;1.00;;;15.50;99.90;;;;;;5103405;28;20039;-68
2022/09/21 12:41:16;;;;;;;6.75;1.25;;;15.50;99.90;;;;;;5112513;28;20046;-70
2022/09/21 12:43:48;;;;;;;9.70;1.30;;;15.40;99.90;;;;;;5111197;28;20043;-70
2022/09/21 12:46:19;;;;;;;5.65;1.05;;;15.50;99.90;;;;;;5112672;28;20040;-70
2022/09/21 12:48:45;;;;;;;6.28;1.13;;;15.50;99.90;;;;;;5094144;28;20046;-69
2022/09/21 12:51:17;;;;;;;4.72;1.02;;;15.50;99.90;;;;;;5112331;28;20396;-68
2022/09/21 12:53:47;;;;;;;7.32;1.27;;;15.60;99.90;;;;;;5112194;28;20035;-67
2022/09/21 12:56:36;;;;;;;9.73;1.20;;;15.70;99.90;;;;;;5112304;28;20074;-66
2022/09/21 12:59:33;;;;;;;5.28;1.17;;;15.60;99.90;;;;;;5112286;28;20040;-67
2022/09/21 13:02:32;;;;;;;5.20;1.10;;;15.60;99.90;;;;;;5112364;28;20501;-65
2022/09/21 13:05:06;;;;;;;4.78;1.10;;;15.70;99.90;;;;;;5111386;28;20039;-65
2022/09/21 13:08:06;;;;;;;4.95;0.90;;;15.70;99.90;;;;;;5112499;28;20079;-65
2022/09/21 13:10:54;;;;;;;6.30;0.95;;;15.60;99.90;;;;;;5112074;28;20090;-65
2022/09/21 13:13:37;;;;;;;6.80;1.77;;;15.60;99.90;;;;;;5112441;28;20051;-65
2022/09/21 13:16:05;;;;;;;5.68;0.90;;;15.80;99.90;;;;;;5112058;28;20035;-65
2022/09/21 13:18:34;;;;;;;5.13;1.08;;;15.80;99.90;;;;;;5112191;28;20066;-65
2022/09/21 13:21:13;;;;;;;2.17;0.80;;;15.90;99.90;;;;;;5112233;28;20032;-65
2022/09/21 13:23:40;;;;;;;10.38;1.27;;;16.00;99.90;;;;;;5112057;28;20078;-65